sensor_id;sensor_type;location;lat;lon;timestamp;pressure;altitude;pressure_sealevel;temperature;humidity
3832;BME280;12460;42.662;23.288;2023-03-20T00:03:14;94846.66;;;8.10;50.80
3832;BME280;12460;42.662;23.288;2023-03-20T00:18:20;94845.03;;;7.94;51.37
3832;BME280;12460;42.662;23.288;2023-03-20T00:33:26;94840.72;;;7.72;52.31
3832;BME280;12460;42.662;23.288;2023-03-20T00:48:30;94831.72;;;7.66;51.49
3832;BME280;12460;42.662;23.288;2023-03-20T01:03:36;94813.38;;;7.58;52.65
3832;BME280;12460;42.662;23.288;2023-03-20T01:18:42;94816.50;;;7.54;52.30
3832;BME280;12460;42.662;23.288;2023-03-20T01:33:47;94808.03;;;7.47;52.98
3832;BME280;12460;42.662;23.288;2023-03-20T02:04:30;94817.94;;;7.14;54.29
3832;BME280;12460;42.662;23.288;2023-03-20T02:50:57;94801.31;;;6.95;54.94
3832;BME280;12460;42.662;23.288;2023-03-20T03:06:11;94801.44;;;6.90;54.65
3832;BME280;12460;42.662;23.288;2023-03-20T03:21:20;94796.19;;;6.73;54.88
3832;BME280;12460;42.662;23.288;2023-03-20T03:52:02;94799.03;;;6.47;56.04
3832;BME280;12460;42.662;23.288;2023-03-20T04:07:09;94784.97;;;6.40;56.37
3832;BME280;12460;42.662;23.288;2023-03-20T04:22:14;94776.16;;;6.36;55.73
3832;BME280;12460;42.662;23.288;2023-03-20T04:37:18;94774.13;;;6.49;55.83
3832;BME280;12460;42.662;23.288;2023-03-20T04:52:31;94808.59;;;6.98;54.82
3832;BME280;12460;42.662;23.288;2023-03-20T05:07:36;94811.72;;;7.83;54.01
3832;BME280;12460;42.662;23.288;2023-03-20T05:22:48;94832.34;;;9.57;50.28
3832;BME280;12460;42.662;23.288;2023-03-20T05:38:22;94823.94;;;10.85;47.23
3832;BME280;12460;42.662;23.288;2023-03-20T05:53:53;94820.06;;;12.84;42.91
3832;BME280;12460;42.662;23.288;2023-03-20T06:09:11;94822.78;;;13.60;41.69
3832;BME280;12460;42.662;23.288;2023-03-20T06:24:16;94831.22;;;13.77;40.47
3832;BME280;12460;42.662;23.288;2023-03-20T06:39:21;94838.38;;;14.05;39.93
3832;BME280;12460;42.662;23.288;2023-03-20T06:54:26;94827.25;;;15.27;38.43
3832;BME280;12460;42.662;23.288;2023-03-20T07:09:32;94811.44;;;15.91;36.75
3832;BME280;12460;42.662;23.288;2023-03-20T07:24:37;94809.97;;;17.13;34.95
3832;BME280;12460;42.662;23.288;2023-03-20T07:39:42;94807.63;;;17.63;33.92
3832;BME280;12460;42.662;23.288;2023-03-20T07:55:07;94812.00;;;18.20;32.34
3832;BME280;12460;42.662;23.288;2023-03-20T08:10:13;94803.09;;;19.92;30.63
3832;BME280;12460;42.662;23.288;2023-03-20T08:25:18;94811.41;;;21.74;28.31
3832;BME280;12460;42.662;23.288;2023-03-20T08:40:22;94811.00;;;22.38;26.78
3832;BME280;12460;42.662;23.288;2023-03-20T08:55:26;94788.81;;;21.94;27.60
3832;BME280;12460;42.662;23.288;2023-03-20T09:10:30;94782.28;;;23.32;25.54
3832;BME280;12460;42.662;23.288;2023-03-20T09:25:35;94769.66;;;22.90;25.88
3832;BME280;12460;42.662;23.288;2023-03-20T09:41:01;94749.13;;;23.62;25.22
3832;BME280;12460;42.662;23.288;2023-03-20T09:56:13;94713.84;;;23.59;25.10
3832;BME280;12460;42.662;23.288;2023-03-20T10:26:51;94661.84;;;25.44;24.01
3832;BME280;12460;42.662;23.288;2023-03-20T10:42:00;94657.03;;;25.50;22.91
3832;BME280;12460;42.662;23.288;2023-03-20T10:57:12;94638.13;;;26.12;22.72
3832;BME280;12460;42.662;23.288;2023-03-20T11:12:19;94604.16;;;26.60;22.06
3832;BME280;12460;42.662;23.288;2023-03-20T11:27:26;94584.28;;;27.53;20.82
3832;BME280;12460;42.662;23.288;2023-03-20T11:42:31;94569.78;;;26.68;20.96
3832;BME280;12460;42.662;23.288;2023-03-20T11:57:39;94538.69;;;25.90;21.59
3832;BME280;12460;42.662;23.288;2023-03-20T12:12:53;94517.47;;;26.82;20.45
3832;BME280;12460;42.662;23.288;2023-03-20T12:28:16;94506.97;;;26.41;20.45
3832;BME280;12460;42.662;23.288;2023-03-20T12:43:25;94480.56;;;26.25;20.11
3832;BME280;12460;42.662;23.288;2023-03-20T12:58:58;94452.44;;;25.48;20.49
3832;BME280;12460;42.662;23.288;2023-03-20T13:14:23;94439.84;;;25.14;20.44
3832;BME280;12460;42.662;23.288;2023-03-20T13:29:31;94414.34;;;24.81;20.04
3832;BME280;12460;42.662;23.288;2023-03-20T13:44:41;94411.94;;;23.49;20.75
3832;BME280;12460;42.662;23.288;2023-03-20T14:15:26;94368.00;;;22.88;20.42
3832;BME280;12460;42.662;23.288;2023-03-20T14:30:42;94370.72;;;22.49;20.53
3832;BME280;12460;42.662;23.288;2023-03-20T14:45:53;94355.00;;;22.32;20.72
3832;BME280;12460;42.662;23.288;2023-03-20T15:01:05;94352.63;;;21.91;21.30
3832;BME280;12460;42.662;23.288;2023-03-20T15:16:12;94361.63;;;21.35;21.49
3832;BME280;12460;42.662;23.288;2023-03-20T15:31:38;94350.31;;;20.90;23.39
3832;BME280;12460;42.662;23.288;2023-03-20T15:46:58;94339.84;;;20.50;26.99
3832;BME280;12460;42.662;23.288;2023-03-20T16:02:07;94354.06;;;20.18;27.92
3832;BME280;12460;42.662;23.288;2023-03-20T16:17:13;94366.81;;;19.59;29.34
3832;BME280;12460;42.662;23.288;2023-03-20T16:32:38;94375.47;;;18.93;30.29
3832;BME280;12460;42.662;23.288;2023-03-20T16:47:43;94370.63;;;18.18;31.24
3832;BME280;12460;42.662;23.288;2023-03-20T17:03:04;94377.16;;;17.70;32.06
3832;BME280;12460;42.662;23.288;2023-03-20T17:18:12;94375.13;;;17.24;32.22
3832;BME280;12460;42.662;23.288;2023-03-20T17:33:18;94385.91;;;16.91;32.64
3832;BME280;12460;42.662;23.288;2023-03-20T17:48:24;94401.94;;;16.52;32.71
3832;BME280;12460;42.662;23.288;2023-03-20T18:03:30;94397.56;;;16.28;32.15
3832;BME280;12460;42.662;23.288;2023-03-20T18:18:34;94410.31;;;16.05;32.13
3832;BME280;12460;42.662;23.288;2023-03-20T18:33:39;94421.81;;;15.54;33.83
3832;BME280;12460;42.662;23.288;2023-03-20T18:48:45;94423.03;;;15.41;33.91
3832;BME280;12460;42.662;23.288;2023-03-20T19:03:49;94435.50;;;15.26;33.98
3832;BME280;12460;42.662;23.288;2023-03-20T19:18:59;94444.00;;;15.26;34.07
3832;BME280;12460;42.662;23.288;2023-03-20T19:34:04;94443.53;;;15.09;34.77
3832;BME280;12460;42.662;23.288;2023-03-20T19:49:18;94462.59;;;15.08;35.81
3832;BME280;12460;42.662;23.288;2023-03-20T20:04:23;94464.28;;;15.02;36.20
3832;BME280;12460;42.662;23.288;2023-03-20T20:19:28;94462.59;;;14.78;37.26
3832;BME280;12460;42.662;23.288;2023-03-20T20:34:33;94470.41;;;14.58;37.98
3832;BME280;12460;42.662;23.288;2023-03-20T20:49:56;94456.38;;;14.69;38.41
3832;BME280;12460;42.662;23.288;2023-03-20T21:05:01;94461.47;;;14.61;38.65
3832;BME280;12460;42.662;23.288;2023-03-20T21:20:06;94465.66;;;14.51;39.55
3832;BME280;12460;42.662;23.288;2023-03-20T21:35:10;94451.13;;;14.07;40.15
3832;BME280;12460;42.662;23.288;2023-03-20T21:50:15;94444.13;;;14.08;39.83
3832;BME280;12460;42.662;23.288;2023-03-20T22:05:41;94442.47;;;14.14;39.97
3832;BME280;12460;42.662;23.288;2023-03-20T22:21:08;94453.50;;;14.20;40.08
3832;BME280;12460;42.662;23.288;2023-03-20T22:36:34;94446.63;;;14.13;40.97
3832;BME280;12460;42.662;23.288;2023-03-20T22:52:00;94436.84;;;14.05;40.64
3832;BME280;12460;42.662;23.288;2023-03-20T23:07:26;94421.38;;;13.96;40.97
3832;BME280;12460;42.662;23.288;2023-03-20T23:22:29;94414.09;;;13.93;41.33
3832;BME280;12460;42.662;23.288;2023-03-20T23:37:35;94404.56;;;13.79;41.60
3832;BME280;12460;42.662;23.288;2023-03-20T23:52:40;94387.94;;;13.73;42.56
